Time;durP1;ratioP1;P1;durP2;ratioP2;P2;SDS_P1;SDS_P2;PMS_P1;PMS_P2;Temp;Humidity;BMP_temperature;BMP_pressure;BME280_temperature;BME280_humidity;BME280_pressure;Samples;Min_cycle;Max_cycle;Signal;HPM_P1;HPM_P2
2023/08/06 00:00:44;;;;;;;;;0.00;0.00;;;;;16.70;60.10;100459.06;5040740;28;45305;-63
2023/08/06 00:03:10;;;;;;;;;0.00;0.00;;;;;16.67;60.30;100467.16;5040437;28;45525;-63
2023/08/06 00:05:35;;;;;;;;;0.00;0.00;;;;;16.66;60.16;100465.44;5030725;28;46945;-63
2023/08/06 00:08:00;;;;;;;;;0.00;0.00;;;;;16.64;60.40;100462.84;5020316;28;45318;-63
2023/08/06 00:10:26;;;;;;;;;1.00;0.00;;;;;16.66;60.22;100473.38;5020454;28;45516;-62
2023/08/06 00:12:51;;;;;;;;;0.00;0.00;;;;;16.64;60.46;100491.16;5031012;28;45458;-63
2023/08/06 00:15:17;;;;;;;;;1.00;1.00;;;;;16.64;60.55;100483.19;5040409;28;45281;-63
2023/08/06 00:17:42;;;;;;;;;1.00;0.00;;;;;16.62;60.31;100482.41;5022388;28;45280;-62
2023/08/06 00:20:08;;;;;;;;;0.00;0.00;;;;;16.60;60.80;100494.88;5022716;28;45258;-63
2023/08/06 00:22:37;;;;;;;;;1.00;0.00;;;;;16.57;60.52;100493.22;5039912;28;45491;-62
2023/08/06 00:25:04;;;;;;;;;0.00;0.00;;;;;16.55;60.43;100489.75;5040047;28;45374;-63
2023/08/06 00:27:29;;;;;;;;;0.00;0.00;;;;;16.55;60.50;100508.31;5040054;28;45347;-63
2023/08/06 00:29:55;;;;;;;;;2.00;0.00;;;;;16.56;60.60;100500.34;5040459;28;45483;-63
2023/08/06 00:32:21;;;;;;;;;2.00;1.00;;;;;16.53;60.34;100495.13;5040022;28;45351;-62
2023/08/06 00:34:49;;;;;;;;;0.00;0.00;;;;;16.52;60.50;100503.16;5039894;28;45458;-63
2023/08/06 00:37:14;;;;;;;;;2.00;1.00;;;;;16.54;60.48;100517.22;5038947;28;45285;-63
2023/08/06 00:39:40;;;;;;;;;1.00;0.00;;;;;16.54;60.43;100510.13;5040212;28;45302;-62
2023/08/06 00:42:05;;;;;;;;;0.00;0.00;;;;;16.58;60.23;100514.38;5039868;28;45267;-63
2023/08/06 00:44:30;;;;;;;;;0.00;0.00;;;;;16.57;60.26;100519.75;5039971;28;46193;-63
2023/08/06 00:46:56;;;;;;;;;0.00;0.00;;;;;16.54;60.30;100523.41;5038897;28;45400;-63
2023/08/06 00:49:21;;;;;;;;;0.00;0.00;;;;;16.54;60.27;100523.41;5040188;28;45176;-63
2023/08/06 00:51:47;;;;;;;;;0.00;0.00;;;;;16.56;60.05;100528.63;5021728;28;45636;-62
2023/08/06 00:54:12;;;;;;;;;1.00;1.00;;;;;16.55;60.10;100533.09;5040085;28;46292;-63
2023/08/06 00:56:38;;;;;;;;;0.00;0.00;;;;;16.52;60.18;100538.50;5037899;28;45391;-63
2023/08/06 00:59:06;;;;;;;;;1.00;0.00;;;;;16.52;60.27;100533.19;5040019;28;45335;-63
2023/08/06 01:01:31;;;;;;;;;0.00;0.00;;;;;16.56;60.25;100541.88;5039717;28;45282;-63
2023/08/06 01:03:57;;;;;;;;;0.00;0.00;;;;;16.55;60.25;100546.34;5039707;28;46201;-63
2023/08/06 01:06:40;;;;;;;;;0.00;0.00;;;;;16.53;60.41;100550.84;5039493;28;45230;-63
2023/08/06 01:09:32;;;;;;;;;5.00;5.00;;;;;16.54;60.35;100555.22;5039896;28;45326;-63
2023/08/06 01:12:25;;;;;;;;;3.25;2.25;;;;;16.49;60.70;100559.84;5039347;28;45758;-63
2023/08/06 01:15:02;;;;;;;;;13.00;10.75;;;;;16.47;60.41;100555.56;5039068;28;45195;-62
2023/08/06 01:17:29;;;;;;;;;1.50;1.50;;;;;16.45;60.60;100565.34;5039526;28;45427;-63
2023/08/06 01:19:54;;;;;;;;;2.00;0.00;;;;;16.41;60.48;100576.09;5039606;28;45282;-62
2023/08/06 01:22:20;;;;;;;;;0.00;0.00;;;;;16.37;60.61;100578.94;5039376;28;45372;-63
2023/08/06 01:24:50;;;;;;;;;0.00;0.00;;;;;16.37;60.52;100578.94;5039201;28;51116;-63
2023/08/06 01:27:33;;;;;;;;;0.00;0.00;;;;;16.37;60.72;100573.63;5039441;28;45289;-63
2023/08/06 01:30:06;;;;;;;;;0.75;0.75;;;;;16.34;60.81;100587.00;5039646;28;45412;-63
2023/08/06 01:32:35;;;;;;;;;2.25;1.00;;;;;16.32;60.62;100596.81;5038465;28;45402;-63
2023/08/06 01:35:03;;;;;;;;;0.00;0.00;;;;;16.30;60.66;100602.19;5039095;28;46347;-63
2023/08/06 01:37:29;;;;;;;;;0.00;0.00;;;;;16.25;60.95;100601.47;5035321;28;45498;-63
2023/08/06 01:39:54;;;;;;;;;0.00;0.00;;;;;16.21;60.82;100589.28;5028630;28;45278;-63
2023/08/06 01:42:19;;;;;;;;;1.00;1.00;;;;;16.23;60.68;100604.19;5019286;28;45459;-63
2023/08/06 01:44:45;;;;;;;;;3.00;0.25;;;;;16.22;60.85;100596.31;5017842;28;56471;-63
2023/08/06 01:47:10;;;;;;;;;2.50;1.00;;;;;16.21;60.69;100607.84;5019227;28;45372;-62
2023/08/06 01:49:36;;;;;;;;;1.25;1.00;;;;;16.18;60.19;100611.47;5018352;28;45322;-63
2023/08/06 01:52:01;;;;;;;;;2.25;1.25;;;;;16.16;60.49;100616.00;5018824;28;45315;-63
2023/08/06 01:54:27;;;;;;;;;1.00;1.00;;;;;16.18;60.79;100621.22;5019335;28;45313;-63
2023/08/06 01:56:53;;;;;;;;;1.00;1.00;;;;;16.18;60.19;100626.53;5019114;28;45295;-63
2023/08/06 01:59:18;;;;;;;;;2.00;1.00;;;;;16.10;60.50;100626.84;5032513;28;45235;-63
2023/08/06 02:01:43;;;;;;;;;2.50;2.00;;;;;16.15;60.25;100632.81;5042487;28;45564;-63
2023/08/06 02:04:08;;;;;;;;;1.50;0.75;;;;;16.14;60.41;100633.75;5042218;28;50079;-63
2023/08/06 02:06:34;;;;;;;;;1.50;1.50;;;;;16.16;60.50;100644.28;5042159;28;45675;-62
2023/08/06 02:08:59;;;;;;;;;1.25;1.25;;;;;16.13;60.24;100645.25;5042663;28;45273;-63
2023/08/06 02:11:24;;;;;;;;;2.00;1.00;;;;;16.14;60.36;100654.94;5041725;28;56404;-63
2023/08/06 02:13:49;;;;;;;;;1.25;1.25;;;;;16.13;60.32;100655.88;5042236;28;45337;-63
2023/08/06 02:16:15;;;;;;;;;4.50;2.75;;;;;16.14;60.35;100657.59;5041946;28;52673;-63
2023/08/06 02:18:40;;;;;;;;;3.00;1.75;;;;;16.15;60.46;100661.97;5042625;28;45253;-63
2023/08/06 02:21:05;;;;;;;;;2.75;2.75;;;;;16.17;60.10;100657.47;5042050;28;45228;-62
2023/08/06 02:23:31;;;;;;;;;4.00;3.00;;;;;16.17;60.08;100659.25;5041987;28;47141;-62
2023/08/06 02:26:00;;;;;;;;;1.75;1.75;;;;;16.17;59.92;100662.75;5042022;28;45421;-63
2023/08/06 02:28:25;;;;;;;;;4.00;1.00;;;;;16.15;60.21;100664.63;5042230;28;45384;-63
2023/08/06 02:30:51;;;;;;;;;3.00;2.50;;;;;16.15;59.76;100672.59;5041827;28;45551;-63
2023/08/06 02:33:17;;;;;;;;;8.00;4.25;;;;;16.14;60.18;100678.81;5041908;28;46289;-63
2023/08/06 02:35:42;;;;;;;;;2.75;1.75;;;;;16.12;60.07;100672.69;5041334;28;56123;-63
2023/08/06 02:38:07;;;;;;;;;1.50;1.50;;;;;16.14;59.65;100683.22;5041872;28;47404;-62
2023/08/06 02:40:32;;;;;;;;;5.50;2.00;;;;;16.16;59.96;100692.00;5041883;28;45206;-63
2023/08/06 02:42:58;;;;;;;;;4.00;1.50;;;;;16.14;59.97;100685.88;5024034;28;46602;-63
2023/08/06 02:45:23;;;;;;;;;2.50;2.50;;;;;16.16;59.71;100689.34;5016894;28;45247;-63
2023/08/06 02:47:48;;;;;;;;;3.50;2.00;;;;;16.16;60.20;100692.00;5020826;28;45249;-63
2023/08/06 02:50:14;;;;;;;;;1.00;1.00;;;;;16.14;60.28;100699.13;5021806;28;45250;-63
2023/08/06 02:52:40;;;;;;;;;4.50;2.25;;;;;16.11;59.85;100704.56;5021423;28;45547;-62
2023/08/06 02:55:06;;;;;;;;;3.25;2.50;;;;;16.03;60.26;100692.44;5021529;28;45288;-63
2023/08/06 02:57:31;;;;;;;;;1.00;1.00;;;;;16.08;60.08;100703.75;5021966;28;45397;-62
2023/08/06 02:59:57;;;;;;;;;2.25;2.25;;;;;16.04;60.01;100696.84;5036716;28;45230;-63
2023/08/06 03:02:22;;;;;;;;;2.50;1.00;;;;;16.04;60.09;100703.94;5023751;28;48116;-63
2023/08/06 03:04:47;;;;;;;;;2.25;2.00;;;;;16.02;60.22;100708.41;5040154;28;45423;-63
2023/08/06 03:07:13;;;;;;;;;3.25;2.00;;;;;16.04;60.41;100710.09;5041449;28;45353;-63
2023/08/06 03:09:38;;;;;;;;;2.25;2.00;;;;;16.03;60.01;100713.66;5038914;28;47236;-62
2023/08/06 03:12:03;;;;;;;;;1.25;1.25;;;;;16.03;59.65;100723.41;5041182;28;46147;-63
2023/08/06 03:14:29;;;;;;;;;1.50;1.50;;;;;16.00;60.33;100712.91;5041363;28;45254;-63
2023/08/06 03:16:55;;;;;;;;;3.00;2.00;;;;;16.01;59.81;100714.63;5041422;28;45337;-63
2023/08/06 03:19:20;;;;;;;;;1.00;1.00;;;;;16.02;59.85;100727.81;5041389;28;45412;-63
2023/08/06 03:21:45;;;;;;;;;1.50;1.50;;;;;15.99;59.62;100724.44;5040960;28;45313;-63
2023/08/06 03:24:11;;;;;;;;;2.00;1.50;;;;;16.00;59.74;100731.44;5041178;28;45335;-63
2023/08/06 03:26:36;;;;;;;;;2.00;1.50;;;;;15.98;59.87;100730.66;5041417;28;45388;-63
2023/08/06 03:29:01;;;;;;;;;1.75;1.75;;;;;16.00;59.55;100728.81;5041211;28;45341;-63
2023/08/06 03:31:27;;;;;;;;;2.50;2.00;;;;;15.96;59.94;100721.91;5039662;28;49871;-62
2023/08/06 03:33:52;;;;;;;;;2.75;2.75;;;;;15.96;59.82;100727.19;5041015;28;48167;-63
2023/08/06 03:36:17;;;;;;;;;2.75;2.75;;;;;15.97;59.43;100728.94;5041051;28;45455;-63
2023/08/06 03:38:42;;;;;;;;;3.25;1.75;;;;;15.96;59.43;100719.25;5033206;28;45474;-63
2023/08/06 03:41:08;;;;;;;;;1.25;1.00;;;;;15.94;59.71;100719.31;5020937;28;45289;-62
2023/08/06 03:43:33;;;;;;;;;11.00;3.75;;;;;15.97;59.88;100728.94;5021073;28;45233;-62
2023/08/06 03:45:58;;;;;;;;;3.00;2.50;;;;;15.95;59.35;100734.28;5020827;28;46111;-63
2023/08/06 03:48:24;;;;;;;;;3.75;2.00;;;;;15.95;59.86;100736.06;5021008;28;45211;-63
2023/08/06 03:50:49;;;;;;;;;3.75;2.25;;;;;15.98;59.48;100750.06;5020708;28;45292;-63
2023/08/06 03:53:14;;;;;;;;;1.50;1.25;;;;;15.97;59.77;100750.13;5003075;28;45261;-63
2023/08/06 03:55:40;;;;;;;;;4.25;4.25;;;;;15.96;59.64;100754.59;5020976;28;46132;-63
2023/08/06 03:58:05;;;;;;;;;3.00;3.00;;;;;15.94;59.24;100748.47;5020768;28;45254;-63
2023/08/06 04:00:30;;;;;;;;;5.00;4.00;;;;;15.95;59.82;100751.97;5040367;28;45150;-62
2023/08/06 04:02:56;;;;;;;;;4.00;3.00;;;;;15.93;59.68;100755.53;5040578;28;45140;-63
2023/08/06 04:05:21;;;;;;;;;1.25;1.25;;;;;15.94;59.76;100756.41;5040672;28;45246;-63
2023/08/06 04:07:46;;;;;;;;;3.50;2.00;;;;;15.94;59.22;100769.66;5040251;28;46350;-63
2023/08/06 04:10:11;;;;;;;;;3.00;2.25;;;;;15.93;59.71;100770.56;5040091;28;51666;-63
2023/08/06 04:12:39;;;;;;;;;3.00;3.00;;;;;15.93;59.26;100774.06;5040164;28;49741;-63
2023/08/06 04:15:04;;;;;;;;;4.00;3.50;;;;;15.92;59.37;100776.78;5040388;28;45400;-63
2023/08/06 04:17:30;;;;;;;;;3.75;3.75;;;;;15.92;59.70;100777.69;5040251;28;45332;-63
2023/08/06 04:19:58;;;;;;;;;5.00;5.00;;;;;15.89;59.70;100780.41;5039978;28;45419;-63
2023/08/06 04:22:23;;;;;;;;;4.00;3.00;;;;;15.93;59.60;100794.44;5039124;28;45479;-63
2023/08/06 04:24:48;;;;;;;;;4.00;4.00;;;;;15.96;59.54;100801.41;5040159;28;45230;-63
2023/08/06 04:27:15;;;;;;;;;5.50;5.50;;;;;15.97;59.32;100816.38;5040386;28;45246;-63
2023/08/06 04:29:40;;;;;;;;;5.25;2.75;;;;;15.96;59.34;100820.84;5040220;28;46123;-63
2023/08/06 04:32:08;;;;;;;;;4.00;2.00;;;;;15.97;59.54;100824.34;5040248;28;45290;-62
2023/08/06 04:34:34;;;;;;;;;3.00;3.00;;;;;15.96;59.28;100827.91;5022377;28;45274;-63
2023/08/06 04:37:00;;;;;;;;;3.00;3.00;;;;;15.96;59.41;100834.09;5039830;28;45383;-63
2023/08/06 04:39:26;;;;;;;;;3.75;3.00;;;;;15.95;59.49;100832.34;5040056;28;46381;-62
2023/08/06 04:41:51;;;;;;;;;4.25;4.25;;;;;15.96;59.22;100828.78;5039988;28;45265;-63
2023/08/06 04:44:16;;;;;;;;;3.00;3.00;;;;;15.96;59.00;100827.91;5039998;28;45626;-63
2023/08/06 04:46:42;;;;;;;;;7.25;4.00;;;;;15.97;59.30;100830.50;5040083;28;45415;-63
2023/08/06 04:49:07;;;;;;;;;4.50;3.00;;;;;15.96;58.85;100827.91;5040002;28;46111;-63
2023/08/06 04:51:32;;;;;;;;;5.00;4.00;;;;;15.96;59.26;100827.91;5039714;28;45231;-63
2023/08/06 04:53:58;;;;;;;;;2.50;2.50;;;;;15.96;59.04;100843.81;5038730;28;45250;-63
2023/08/06 04:56:23;;;;;;;;;4.75;2.50;;;;;15.95;58.99;100842.94;5039834;28;45513;-63
2023/08/06 04:58:48;;;;;;;;;4.50;4.00;;;;;15.95;59.15;100847.38;5039585;28;45173;-63
2023/08/06 05:01:14;;;;;;;;;3.75;3.00;;;;;15.91;58.74;100846.59;5038632;28;45429;-63
2023/08/06 05:03:39;;;;;;;;;4.50;3.50;;;;;15.94;58.69;100865.06;5039772;28;45217;-63
2023/08/06 05:06:04;;;;;;;;;4.25;3.75;;;;;15.89;58.87;100848.47;5038279;28;45251;-63
2023/08/06 05:08:30;;;;;;;;;2.00;1.75;;;;;15.93;58.96;100858.88;5038278;28;47302;-63
2023/08/06 05:10:55;;;;;;;;;2.75;2.25;;;;;15.91;58.95;100863.38;5039404;28;52985;-63
2023/08/06 05:13:20;;;;;;;;;5.00;3.00;;;;;15.95;58.92;100863.28;5039679;28;45171;-63
2023/08/06 05:15:46;;;;;;;;;2.50;2.50;;;;;15.93;58.72;100873.94;5039722;28;45587;-64
2023/08/06 05:18:12;;;;;;;;;4.50;3.50;;;;;15.89;58.67;100859.91;5039452;28;45424;-64
2023/08/06 05:20:42;;;;;;;;;3.50;3.00;;;;;15.95;58.89;100881.81;5029321;28;45307;-63
2023/08/06 05:23:08;;;;;;;;;4.00;3.50;;;;;15.93;59.29;100880.09;5020755;28;45446;-63
2023/08/06 05:25:37;;;;;;;;;5.00;2.75;;;;;15.95;58.71;100888.00;5019347;28;45231;-63
2023/08/06 05:28:03;;;;;;;;;3.25;3.25;;;;;15.95;59.01;100888.00;5019412;28;45476;-63
2023/08/06 05:30:28;;;;;;;;;2.75;2.75;;;;;15.97;58.78;100894.09;5019456;28;45475;-64
2023/08/06 05:32:55;;;;;;;;;3.00;3.00;;;;;15.98;58.73;100902.94;5021086;28;45586;-63
2023/08/06 05:35:20;;;;;;;;;3.25;3.25;;;;;15.97;58.75;100903.84;5023051;28;45503;-64
2023/08/06 05:37:45;;;;;;;;;3.00;3.00;;;;;15.95;58.82;100901.25;5022415;28;45618;-64
2023/08/06 05:40:11;;;;;;;;;2.25;2.00;;;;;15.97;59.21;100914.44;5022825;28;45562;-64
2023/08/06 05:42:36;;;;;;;;;3.50;1.75;;;;;15.98;58.77;100921.47;5022805;28;45396;-64
2023/08/06 05:45:01;;;;;;;;;4.50;3.00;;;;;15.95;58.63;100926.88;5022512;28;53227;-64
2023/08/06 05:47:27;;;;;;;;;2.75;2.50;;;;;15.96;58.96;100936.56;5021418;28;47233;-63
2023/08/06 05:49:52;;;;;;;;;3.50;3.50;;;;;15.95;58.99;100942.78;5022862;28;45332;-64
2023/08/06 05:52:17;;;;;;;;;2.50;2.50;;;;;15.95;58.86;100934.81;5022502;28;45737;-64
2023/08/06 05:54:43;;;;;;;;;3.00;3.00;;;;;15.97;59.02;100943.59;5022909;28;45260;-63
2023/08/06 05:57:08;;;;;;;;;7.25;3.00;;;;;15.93;59.01;100932.22;5021845;28;58795;-64
2023/08/06 05:59:33;;;;;;;;;3.25;2.50;;;;;15.93;59.11;100953.44;5034695;28;45293;-63
2023/08/06 06:01:58;;;;;;;;;2.50;2.00;;;;;15.93;59.23;100945.47;5026155;28;45289;-63
2023/08/06 06:04:25;;;;;;;;;2.00;2.00;;;;;15.92;59.11;100949.94;5031900;28;49181;-63
2023/08/06 06:06:50;;;;;;;;;3.00;3.00;;;;;15.91;59.14;100952.59;5040880;28;45945;-63
2023/08/06 06:09:15;;;;;;;;;3.00;2.00;;;;;15.95;59.36;100956.91;5042323;28;45151;-64
2023/08/06 06:11:40;;;;;;;;;2.50;2.50;;;;;15.96;58.91;100960.41;5042085;28;45202;-64
2023/08/06 06:14:06;;;;;;;;;2.75;2.75;;;;;15.97;59.10;100956.84;5042539;28;45285;-63
2023/08/06 06:16:31;;;;;;;;;1.25;1.25;;;;;15.96;59.01;100963.06;5042231;28;45360;-63
2023/08/06 06:18:57;;;;;;;;;4.75;2.00;;;;;15.99;58.73;100961.19;5042405;28;45176;-64
2023/08/06 06:21:23;;;;;;;;;2.50;2.00;;;;;16.01;58.94;100969.97;5041997;28;45441;-64
2023/08/06 06:23:49;;;;;;;;;1.25;1.00;;;;;16.03;59.31;100972.56;5042051;28;45332;-64
2023/08/06 06:26:14;;;;;;;;;1.50;1.00;;;;;16.06;59.22;100978.63;5041876;28;46110;-64
2023/08/06 06:28:39;;;;;;;;;3.00;2.25;;;;;16.07;59.09;100985.66;5042178;28;45312;-64
2023/08/06 06:31:05;;;;;;;;;1.00;1.00;;;;;16.07;59.14;100980.34;5041628;28;50251;-64
2023/08/06 06:33:30;;;;;;;;;2.00;2.00;;;;;16.10;58.80;100990.00;5042180;28;45309;-64
2023/08/06 06:35:55;;;;;;;;;3.00;3.00;;;;;16.09;59.08;100983.81;5041649;28;45474;-63
2023/08/06 06:38:21;;;;;;;;;1.50;1.50;;;;;16.11;58.64;100986.41;5041938;28;45349;-63
2023/08/06 06:41:04;;;;;;;;;2.50;2.50;;;;;16.16;59.00;100997.75;5041917;28;45277;-64
2023/08/06 06:43:30;;;;;;;;;2.00;2.00;;;;;16.19;58.83;101008.22;5032891;28;45474;-64
2023/08/06 06:45:59;;;;;;;;;1.50;1.50;;;;;16.20;59.25;100998.47;5021822;28;46122;-63
2023/08/06 06:48:27;;;;;;;;;3.00;1.75;;;;;16.22;58.87;101008.13;5021904;28;45321;-64
2023/08/06 06:50:52;;;;;;;;;3.00;2.00;;;;;16.19;58.81;101000.28;5021731;28;45226;-63
2023/08/06 06:53:17;;;;;;;;;1.75;1.75;;;;;16.27;58.82;101012.41;5021700;28;46475;-63
2023/08/06 06:55:42;;;;;;;;;3.50;3.00;;;;;16.28;58.91;101009.72;5021663;28;46095;-64
2023/08/06 06:58:08;;;;;;;;;1.00;1.00;;;;;16.31;58.59;101020.19;5021739;28;45308;-64
2023/08/06 07:00:36;;;;;;;;;4.75;4.75;;;;;16.30;58.52;101013.19;5041964;28;45325;-63
2023/08/06 07:03:02;;;;;;;;;4.50;1.25;;;;;16.33;58.54;101018.38;5041541;28;45332;-64
2023/08/06 07:05:27;;;;;;;;;3.25;2.25;;;;;16.34;58.39;101019.22;5041403;28;45895;-63
2023/08/06 07:07:52;;;;;;;;;2.25;2.25;;;;;16.35;58.68;101010.34;5041421;28;45233;-64
2023/08/06 07:10:18;;;;;;;;;1.25;1.25;;;;;16.35;58.25;101003.28;5041776;28;45212;-63
2023/08/06 07:12:43;;;;;;;;;0.00;0.00;;;;;16.37;58.15;101005.88;5033430;28;45194;-64
2023/08/06 07:15:09;;;;;;;;;3.00;1.00;;;;;16.38;58.11;101011.13;5041012;28;51311;-63
2023/08/06 07:17:35;;;;;;;;;1.00;1.00;;;;;16.40;58.12;101027.88;5041473;28;45263;-63
2023/08/06 07:20:00;;;;;;;;;3.00;1.25;;;;;16.41;58.25;101028.72;5041359;28;45234;-63
2023/08/06 07:22:25;;;;;;;;;3.00;1.75;;;;;16.45;58.14;101025.03;5040846;28;49638;-63
2023/08/06 07:24:51;;;;;;;;;3.00;2.00;;;;;16.49;57.72;101032.00;5040983;28;45211;-63
2023/08/06 07:27:16;;;;;;;;;5.00;1.25;;;;;16.50;57.49;101030.19;5041238;28;45195;-63
2023/08/06 07:29:41;;;;;;;;;1.50;1.50;;;;;16.50;57.74;101030.19;5041220;28;45147;-63
2023/08/06 07:32:07;;;;;;;;;2.00;2.00;;;;;16.52;57.20;101025.72;5041029;28;45139;-63
2023/08/06 07:34:32;;;;;;;;;2.50;1.25;;;;;16.53;57.40;101019.50;5040790;28;46081;-63
2023/08/06 07:36:58;;;;;;;;;2.75;2.75;;;;;16.56;57.08;101028.22;5040807;28;45490;-63
2023/08/06 07:39:23;;;;;;;;;2.00;2.00;;;;;16.54;56.88;101027.38;5041026;28;45380;-63
2023/08/06 07:41:49;;;;;;;;;1.25;1.25;;;;;16.56;56.92;101035.28;5040836;28;45452;-63
2023/08/06 07:44:14;;;;;;;;;2.50;1.00;;;;;16.57;57.03;101037.03;5040581;28;50847;-63
2023/08/06 07:46:40;;;;;;;;;2.50;2.50;;;;;16.61;56.79;101032.47;5040932;28;45265;-63
2023/08/06 07:49:05;;;;;;;;;3.00;2.25;;;;;16.61;57.03;101043.09;5040903;28;45604;-63
2023/08/06 07:51:30;;;;;;;;;1.00;1.00;;;;;16.67;56.82;101050.84;5040514;28;45372;-63
2023/08/06 07:53:56;;;;;;;;;2.75;2.75;;;;;16.69;56.46;101052.53;5040331;28;51357;-63
2023/08/06 07:56:21;;;;;;;;;5.00;2.00;;;;;16.71;56.53;101055.13;5040287;28;51157;-63
2023/08/06 07:58:46;;;;;;;;;2.50;2.00;;;;;16.73;55.96;101063.91;5040685;28;45295;-63
2023/08/06 08:01:12;;;;;;;;;2.00;2.00;;;;;16.74;56.05;101057.66;5040787;28;45309;-63
2023/08/06 08:03:37;;;;;;;;;4.00;1.00;;;;;16.76;56.04;101058.47;5030637;28;46288;-63
2023/08/06 08:06:02;;;;;;;;;1.50;1.00;;;;;16.80;55.65;101065.41;5028505;28;45250;-63
2023/08/06 08:08:28;;;;;;;;;2.00;1.00;;;;;16.82;55.45;101073.31;5020615;28;45304;-64
2023/08/06 08:10:55;;;;;;;;;4.75;3.00;;;;;16.84;55.57;101071.47;5019171;28;45632;-63
2023/08/06 08:13:20;;;;;;;;;3.00;3.00;;;;;16.85;55.56;101067.91;5034853;28;46158;-63
2023/08/06 08:15:46;;;;;;;;;0.00;0.00;;;;;16.89;54.99;101074.81;5040362;28;45286;-63
2023/08/06 08:18:11;;;;;;;;;2.75;1.50;;;;;16.87;55.25;101082.00;5040463;28;45234;-63
2023/08/06 08:20:36;;;;;;;;;2.50;2.00;;;;;16.90;55.00;101076.56;5040052;28;45327;-63
2023/08/06 08:23:02;;;;;;;;;1.50;1.00;;;;;16.93;55.00;101086.22;5040036;28;47889;-63
2023/08/06 08:25:28;;;;;;;;;3.50;1.25;;;;;16.96;54.76;101072.88;5040274;28;45245;-63
2023/08/06 08:27:56;;;;;;;;;3.00;1.00;;;;;16.96;54.59;101086.16;5040349;28;45329;-63
2023/08/06 08:30:22;;;;;;;;;2.25;1.00;;;;;17.01;54.51;101086.84;5040339;28;45297;-63
2023/08/06 08:32:49;;;;;;;;;1.25;1.00;;;;;17.05;54.81;101089.31;5022054;28;45988;-63
2023/08/06 08:35:15;;;;;;;;;2.50;1.25;;;;;17.08;54.60;101091.03;5039767;28;45230;-63
2023/08/06 08:37:41;;;;;;;;;1.25;1.00;;;;;17.12;54.43;101100.59;5022234;28;45243;-63
2023/08/06 08:40:07;;;;;;;;;1.25;1.25;;;;;17.18;54.56;101108.34;5040072;28;45463;-63
2023/08/06 08:42:33;;;;;;;;;1.00;1.00;;;;;17.20;54.46;101103.81;5039883;28;46164;-63
2023/08/06 08:44:58;;;;;;;;;4.00;4.00;;;;;17.26;54.31;101110.72;5039883;28;45381;-63
2023/08/06 08:47:24;;;;;;;;;1.75;1.75;;;;;17.29;54.19;101115.91;5040040;28;45390;-63
2023/08/06 08:49:55;;;;;;;;;2.00;2.00;;;;;17.31;54.00;101118.53;5039944;28;45311;-63
2023/08/06 08:52:21;;;;;;;;;3.00;1.00;;;;;17.33;53.80;101130.84;5039379;28;46183;-62
2023/08/06 08:54:51;;;;;;;;;2.00;1.50;;;;;17.34;53.55;101123.72;5039834;28;45298;-63
2023/08/06 08:57:16;;;;;;;;;1.50;1.00;;;;;17.40;53.60;101133.28;5039863;28;45329;-62
2023/08/06 08:59:42;;;;;;;;;1.75;1.50;;;;;17.44;53.41;101126.91;5039960;28;45320;-63
2023/08/06 09:02:11;;;;;;;;;4.00;2.75;;;;;17.46;53.34;101139.22;5039891;28;45372;-63
2023/08/06 09:04:37;;;;;;;;;0.50;0.50;;;;;17.48;53.52;101125.88;5039163;28;45158;-63
2023/08/06 09:07:05;;;;;;;;;4.00;1.00;;;;;17.50;53.35;101129.34;5040042;28;45439;-63
2023/08/06 09:09:33;;;;;;;;;5.00;3.25;;;;;17.57;53.26;101137.94;5043441;28;45365;-63
2023/08/06 09:12:04;;;;;;;;;2.00;2.00;;;;;17.57;53.03;101141.44;5024882;28;48266;-63
2023/08/06 09:14:29;;;;;;;;;3.00;1.25;;;;;17.62;52.71;101144.84;5043162;28;45308;-63
2023/08/06 09:16:55;;;;;;;;;2.25;2.00;;;;;17.61;52.83;101148.41;5043399;28;45647;-63
2023/08/06 09:19:20;;;;;;;;;3.00;2.50;;;;;17.64;52.81;101150.09;5043199;28;45473;-63
2023/08/06 09:21:49;;;;;;;;;2.00;2.00;;;;;17.67;52.77;101144.63;5042865;28;45885;-63
2023/08/06 09:24:15;;;;;;;;;2.50;2.50;;;;;17.71;52.60;101156.91;5043214;28;45217;-62
2023/08/06 09:26:42;;;;;;;;;6.00;3.25;;;;;17.76;52.48;101154.06;5043023;28;45407;-63
2023/08/06 09:29:08;;;;;;;;;2.75;2.50;;;;;17.77;52.37;101154.00;5042835;28;45365;-63
2023/08/06 09:31:44;;;;;;;;;2.00;2.00;;;;;17.81;52.79;101146.78;5042718;28;45560;-63
2023/08/06 09:34:16;;;;;;;;;4.00;2.00;;;;;17.90;52.67;101158.84;5042973;28;45368;-63
2023/08/06 09:36:48;;;;;;;;;2.50;2.25;;;;;17.97;52.45;101163.03;5042928;28;45329;-63
2023/08/06 09:39:20;;;;;;;;;3.00;1.75;;;;;18.04;52.42;101159.22;5042840;28;45312;-63
2023/08/06 09:41:48;;;;;;;;;4.50;3.00;;;;;18.09;51.85;101170.56;5042636;28;45432;-63
2023/08/06 09:44:18;;;;;;;;;2.50;2.50;;;;;18.11;51.58;101158.06;5042699;28;45217;-63
2023/08/06 09:46:51;;;;;;;;;1.67;1.67;;;;;18.15;51.81;101162.34;5042994;28;45340;-63
2023/08/06 09:49:19;;;;;;;;;1.50;1.25;;;;;18.23;51.54;101171.81;5042738;28;45237;-63
2023/08/06 09:51:45;;;;;;;;;2.00;2.00;;;;;18.29;51.52;101167.13;5042177;28;45353;-63
2023/08/06 09:54:15;;;;;;;;;1.50;1.50;;;;;18.38;51.73;101160.56;5041859;28;45332;-63
2023/08/06 09:56:42;;;;;;;;;1.75;1.75;;;;;18.47;51.49;101162.84;5042444;28;45183;-63
2023/08/06 09:59:10;;;;;;;;;3.00;2.00;;;;;18.52;51.19;101160.84;5042687;28;45398;-63
2023/08/06 10:01:36;;;;;;;;;0.00;0.00;;;;;18.60;50.89;101165.88;5042182;28;45345;-63
2023/08/06 10:04:04;;;;;;;;;1.00;1.00;;;;;18.65;51.00;101168.34;5042300;28;45364;-63
2023/08/06 10:06:29;;;;;;;;;4.50;2.75;;;;;18.71;51.15;101178.72;5042056;28;45314;-63
2023/08/06 10:08:55;;;;;;;;;3.00;2.25;;;;;18.72;50.96;101167.16;5041538;28;45455;-63
2023/08/06 10:11:27;;;;;;;;;2.25;1.25;;;;;18.87;50.39;101176.31;5042080;28;45874;-63
2023/08/06 10:13:58;;;;;;;;;2.50;2.25;;;;;18.98;50.79;101181.19;5042296;28;45419;-63
2023/08/06 10:16:25;;;;;;;;;3.00;2.00;;;;;19.11;51.20;101187.72;5042289;28;45351;-63
2023/08/06 10:18:51;;;;;;;;;3.00;1.00;;;;;19.22;50.92;101175.75;5042146;28;45281;-63
2023/08/06 10:21:18;;;;;;;;;2.00;1.25;;;;;19.43;51.16;101182.81;5041789;28;45502;-63
2023/08/06 10:23:43;;;;;;;;;1.00;1.00;;;;;19.58;51.31;101178.56;5042049;28;45498;-63
2023/08/06 10:26:08;;;;;;;;;3.25;3.25;;;;;19.81;51.00;101174.03;5041955;28;45221;-63
2023/08/06 10:28:39;;;;;;;;;1.75;1.75;;;;;20.00;50.89;101198.06;5042103;28;45230;-63
2023/08/06 10:31:05;;;;;;;;;1.50;1.50;;;;;20.16;51.12;101189.31;5041685;28;46289;-64
2023/08/06 10:33:42;;;;;;;;;2.00;2.00;;;;;20.33;50.71;101197.41;5041938;28;45253;-63
2023/08/06 10:36:09;;;;;;;;;3.25;1.00;;;;;20.45;50.49;101201.25;5040923;28;45389;-63
2023/08/06 10:38:36;;;;;;;;;2.25;2.00;;;;;20.55;50.30;101201.69;5041890;28;45236;-63
2023/08/06 10:41:03;;;;;;;;;2.00;1.00;;;;;20.70;50.07;101214.28;5023798;28;48039;-63
2023/08/06 10:43:34;;;;;;;;;1.00;1.00;;;;;20.81;49.87;101204.91;5041372;28;45410;-63
2023/08/06 10:46:02;;;;;;;;;2.00;1.00;;;;;20.94;49.47;101184.66;5041859;28;45356;-64
2023/08/06 10:48:31;;;;;;;;;2.00;2.00;;;;;21.07;49.71;101195.59;5041659;28;45241;-64
2023/08/06 10:50:56;;;;;;;;;2.25;2.25;;;;;21.19;49.98;101199.44;5041504;28;45348;-64
2023/08/06 10:53:22;;;;;;;;;3.25;2.50;;;;;21.34;49.48;101206.63;5041603;28;45338;-64
2023/08/06 10:55:47;;;;;;;;;2.00;2.00;;;;;21.46;49.05;101197.13;5041801;28;45379;-64
2023/08/06 10:58:15;;;;;;;;;2.00;1.00;;;;;21.63;49.27;101200.75;5041614;28;50288;-64
2023/08/06 11:00:41;;;;;;;;;1.00;1.00;;;;;21.80;49.04;101189.13;5041723;28;46550;-64
2023/08/06 11:03:06;;;;;;;;;1.00;1.00;;;;;21.99;48.49;101195.19;5028714;28;45264;-64
2023/08/06 11:05:32;;;;;;;;;2.00;2.00;;;;;22.15;48.12;101200.56;5041409;28;45194;-63
2023/08/06 11:07:58;;;;;;;;;2.00;2.00;;;;;22.31;48.06;101208.59;5041570;28;45534;-63
2023/08/06 11:10:23;;;;;;;;;1.00;1.00;;;;;22.44;47.96;101199.91;5040009;28;47176;-65
2023/08/06 11:12:48;;;;;;;;;3.75;1.75;;;;;22.55;47.85;101202.81;5041248;28;45329;-63
2023/08/06 11:15:14;;;;;;;;;2.00;1.00;;;;;22.62;47.43;101193.50;5041202;28;48655;-63
2023/08/06 11:17:41;;;;;;;;;2.00;0.00;;;;;22.78;47.59;101214.03;5041670;28;45326;-64
2023/08/06 11:20:06;;;;;;;;;3.33;2.00;;;;;22.91;47.50;101188.25;5039842;28;46201;-63